sensor_id;sensor_type;location;lat;lon;timestamp;pressure;altitude;pressure_sealevel;temperature;humidity
61786;BME280;47692;53.714;11.372;2023-01-15T00:01:05;98787.03;;;6.35;100.00
61786;BME280;47692;53.714;11.372;2023-01-15T00:03:41;98794.81;;;6.35;100.00
61786;BME280;47692;53.714;11.372;2023-01-15T00:06:06;98787.03;;;6.35;100.00
61786;BME280;47692;53.714;11.372;2023-01-15T00:08:31;98815.97;;;6.23;100.00
61786;BME280;47692;53.714;11.372;2023-01-15T00:10:57;98829.16;;;6.17;100.00
61786;BME280;47692;53.714;11.372;2023-01-15T00:13:22;98848.63;;;6.03;100.00
61786;BME280;47692;53.714;11.372;2023-01-15T00:15:47;98837.16;;;5.83;100.00
61786;BME280;47692;53.714;11.372;2023-01-15T00:18:12;98839.47;;;5.66;100.00
61786;BME280;47692;53.714;11.372;2023-01-15T00:20:38;98843.03;;;5.62;100.00
61786;BME280;47692;53.714;11.372;2023-01-15T00:23:03;98833.81;;;5.53;100.00
61786;BME280;47692;53.714;11.372;2023-01-15T00:25:28;98822.63;;;5.53;100.00
61786;BME280;47692;53.714;11.372;2023-01-15T00:28:12;98822.63;;;5.53;100.00
61786;BME280;47692;53.714;11.372;2023-01-15T00:30:41;98813.97;;;5.54;100.00
61786;BME280;47692;53.714;11.372;2023-01-15T00:33:07;98821.13;;;5.45;100.00
61786;BME280;47692;53.714;11.372;2023-01-15T00:35:32;98822.84;;;5.46;100.00
61786;BME280;47692;53.714;11.372;2023-01-15T00:37:57;98831.28;;;5.52;100.00
61786;BME280;47692;53.714;11.372;2023-01-15T00:40:24;98822.63;;;5.53;100.00
61786;BME280;47692;53.714;11.372;2023-01-15T00:42:49;98812.69;;;5.40;100.00
61786;BME280;47692;53.714;11.372;2023-01-15T00:45:14;98829.91;;;5.41;100.00
61786;BME280;47692;53.714;11.372;2023-01-15T00:47:41;98824.81;;;5.38;100.00
61786;BME280;47692;53.714;11.372;2023-01-15T00:50:07;98842.16;;;5.36;100.00
61786;BME280;47692;53.714;11.372;2023-01-15T00:52:33;98840.53;;;5.32;100.00
61786;BME280;47692;53.714;11.372;2023-01-15T00:54:58;98850.09;;;5.30;100.00
61786;BME280;47692;53.714;11.372;2023-01-15T00:57:24;98846.09;;;5.20;100.00
61786;BME280;47692;53.714;11.372;2023-01-15T00:59:49;98857.19;;;5.23;100.00
61786;BME280;47692;53.714;11.372;2023-01-15T01:02:14;98858.13;;;5.21;100.00
61786;BME280;47692;53.714;11.372;2023-01-15T01:04:39;98854.00;;;5.15;100.00
61786;BME280;47692;53.714;11.372;2023-01-15T01:07:05;98863.50;;;5.14;100.00
61786;BME280;47692;53.714;11.372;2023-01-15T01:09:30;98873.84;;;5.14;100.00
61786;BME280;47692;53.714;11.372;2023-01-15T01:11:55;98853.25;;;5.11;100.00
61786;BME280;47692;53.714;11.372;2023-01-15T01:14:21;98864.53;;;5.09;100.00
61786;BME280;47692;53.714;11.372;2023-01-15T01:16:46;98849.97;;;5.06;100.00
61786;BME280;47692;53.714;11.372;2023-01-15T01:19:12;98869.91;;;5.03;100.00
61786;BME280;47692;53.714;11.372;2023-01-15T01:21:38;98882.88;;;5.01;100.00
61786;BME280;47692;53.714;11.372;2023-01-15T01:24:04;98874.19;;;5.02;100.00
61786;BME280;47692;53.714;11.372;2023-01-15T01:26:30;98880.13;;;5.06;100.00
61786;BME280;47692;53.714;11.372;2023-01-15T01:28:55;98880.91;;;5.09;100.00
61786;BME280;47692;53.714;11.372;2023-01-15T01:31:21;98879.38;;;5.02;100.00
61786;BME280;47692;53.714;11.372;2023-01-15T01:33:47;98885.25;;;5.07;100.00
61786;BME280;47692;53.714;11.372;2023-01-15T01:36:12;98885.38;;;5.04;100.00
61786;BME280;47692;53.714;11.372;2023-01-15T01:38:37;98887.94;;;5.04;100.00
61786;BME280;47692;53.714;11.372;2023-01-15T01:41:02;98886.19;;;5.06;100.00
61786;BME280;47692;53.714;11.372;2023-01-15T01:43:28;98891.34;;;5.06;100.00
61786;BME280;47692;53.714;11.372;2023-01-15T01:45:54;98889.47;;;5.11;100.00
61786;BME280;47692;53.714;11.372;2023-01-15T01:48:23;98879.13;;;5.11;100.00
61786;BME280;47692;53.714;11.372;2023-01-15T01:50:50;98892.25;;;5.05;100.00
61786;BME280;47692;53.714;11.372;2023-01-15T01:53:19;98881.88;;;5.05;100.00
61786;BME280;47692;53.714;11.372;2023-01-15T01:55:45;98872.44;;;5.04;100.00
61786;BME280;47692;53.714;11.372;2023-01-15T01:58:10;98876.78;;;5.04;100.00
61786;BME280;47692;53.714;11.372;2023-01-15T02:00:37;98881.00;;;5.06;100.00
61786;BME280;47692;53.714;11.372;2023-01-15T02:03:04;98876.00;;;5.00;100.00
61786;BME280;47692;53.714;11.372;2023-01-15T02:05:31;98888.06;;;4.99;100.00
61786;BME280;47692;53.714;11.372;2023-01-15T02:07:57;98887.13;;;5.04;100.00
61786;BME280;47692;53.714;11.372;2023-01-15T02:10:22;98885.41;;;5.03;100.00
61786;BME280;47692;53.714;11.372;2023-01-15T02:12:51;98877.72;;;5.01;100.00
61786;BME280;47692;53.714;11.372;2023-01-15T02:15:25;98887.13;;;5.02;100.00
61786;BME280;47692;53.714;11.372;2023-01-15T02:17:58;98875.25;;;4.96;100.00
61786;BME280;47692;53.714;11.372;2023-01-15T02:23:37;98886.53;;;4.94;100.00
61786;BME280;47692;53.714;11.372;2023-01-15T02:28:57;98874.34;;;4.97;100.00
61786;BME280;47692;53.714;11.372;2023-01-15T02:31:33;98877.06;;;4.93;100.00
61786;BME280;47692;53.714;11.372;2023-01-15T02:36:27;98869.31;;;4.93;100.00
61786;BME280;47692;53.714;11.372;2023-01-15T02:38:55;98867.63;;;4.92;100.00
61786;BME280;47692;53.714;11.372;2023-01-15T02:41:30;98860.84;;;4.88;100.00
61786;BME280;47692;53.714;11.372;2023-01-15T02:43:57;98862.53;;;4.89;100.00
61786;BME280;47692;53.714;11.372;2023-01-15T02:46:25;98866.81;;;4.90;100.00
61786;BME280;47692;53.714;11.372;2023-01-15T02:48:52;98876.38;;;4.88;100.00
61786;BME280;47692;53.714;11.372;2023-01-15T02:51:20;98871.09;;;4.91;100.00
61786;BME280;47692;53.714;11.372;2023-01-15T02:53:47;98879.72;;;4.90;100.00
61786;BME280;47692;53.714;11.372;2023-01-15T02:56:14;98878.91;;;4.89;100.00
61786;BME280;47692;53.714;11.372;2023-01-15T02:58:41;98876.38;;;4.88;100.00
61786;BME280;47692;53.714;11.372;2023-01-15T03:01:10;98882.38;;;4.88;100.00
61786;BME280;47692;53.714;11.372;2023-01-15T03:06:26;98883.94;;;4.94;100.00
61786;BME280;47692;53.714;11.372;2023-01-15T03:08:56;98873.69;;;4.91;100.00
61786;BME280;47692;53.714;11.372;2023-01-15T03:11:22;98882.38;;;4.88;100.00
61786;BME280;47692;53.714;11.372;2023-01-15T03:13:53;98883.25;;;4.87;100.00
61786;BME280;47692;53.714;11.372;2023-01-15T03:16:33;98877.31;;;4.85;100.00
61786;BME280;47692;53.714;11.372;2023-01-15T03:21:39;98885.94;;;4.84;100.00
61786;BME280;47692;53.714;11.372;2023-01-15T03:24:08;98898.00;;;4.83;100.00
61786;BME280;47692;53.714;11.372;2023-01-15T03:26:34;98895.41;;;4.83;100.00
61786;BME280;47692;53.714;11.372;2023-01-15T03:28:59;98901.47;;;4.84;100.00
61786;BME280;47692;53.714;11.372;2023-01-15T03:31:27;98898.00;;;4.83;100.00
61786;BME280;47692;53.714;11.372;2023-01-15T03:33:52;98900.41;;;4.90;100.00
61786;BME280;47692;53.714;11.372;2023-01-15T03:36:18;98899.63;;;4.88;100.00
61786;BME280;47692;53.714;11.372;2023-01-15T03:38:43;98904.00;;;4.85;100.00
61786;BME280;47692;53.714;11.372;2023-01-15T03:46:10;98892.88;;;4.82;100.00
61786;BME280;47692;53.714;11.372;2023-01-15T03:48:38;98883.41;;;4.82;100.00
61786;BME280;47692;53.714;11.372;2023-01-15T03:51:10;98885.94;;;4.84;100.00
61786;BME280;47692;53.714;11.372;2023-01-15T03:53:40;98886.06;;;4.79;100.00
61786;BME280;47692;53.714;11.372;2023-01-15T03:56:12;98884.38;;;4.78;100.00
61786;BME280;47692;53.714;11.372;2023-01-15T04:01:08;98868.06;;;4.76;100.00
61786;BME280;47692;53.714;11.372;2023-01-15T04:03:35;98878.41;;;4.76;100.00
61786;BME280;47692;53.714;11.372;2023-01-15T04:06:01;98872.38;;;4.76;100.00
61786;BME280;47692;53.714;11.372;2023-01-15T04:08:28;98862.78;;;4.79;100.00
61786;BME280;47692;53.714;11.372;2023-01-15T04:10:56;98865.56;;;4.73;100.00
61786;BME280;47692;53.714;11.372;2023-01-15T04:13:21;98852.59;;;4.75;100.00
61786;BME280;47692;53.714;11.372;2023-01-15T04:15:47;98858.66;;;4.74;100.00
61786;BME280;47692;53.714;11.372;2023-01-15T04:18:12;98856.03;;;4.75;100.00
61786;BME280;47692;53.714;11.372;2023-01-15T04:20:37;98851.81;;;4.73;100.00
61786;BME280;47692;53.714;11.372;2023-01-15T04:23:02;98844.94;;;4.72;100.00
61786;BME280;47692;53.714;11.372;2023-01-15T04:25:28;98852.72;;;4.70;100.00
61786;BME280;47692;53.714;11.372;2023-01-15T04:27:53;98853.69;;;4.66;100.00
61786;BME280;47692;53.714;11.372;2023-01-15T04:30:19;98844.06;;;4.71;100.00
61786;BME280;47692;53.714;11.372;2023-01-15T04:32:47;98855.28;;;4.72;100.00
61786;BME280;47692;53.714;11.372;2023-01-15T04:35:12;98851.81;;;4.71;100.00
61786;BME280;47692;53.714;11.372;2023-01-15T04:37:37;98845.75;;;4.72;100.00
61786;BME280;47692;53.714;11.372;2023-01-15T04:40:03;98842.34;;;4.72;100.00
61786;BME280;47692;53.714;11.372;2023-01-15T04:42:28;98840.59;;;4.72;100.00
61786;BME280;47692;53.714;11.372;2023-01-15T04:45:12;98844.06;;;4.71;100.00
61786;BME280;47692;53.714;11.372;2023-01-15T04:47:37;98839.81;;;4.70;100.00
61786;BME280;47692;53.714;11.372;2023-01-15T04:50:02;98826.88;;;4.70;100.00
61786;BME280;47692;53.714;11.372;2023-01-15T04:52:28;98828.72;;;4.66;100.00
61786;BME280;47692;53.714;11.372;2023-01-15T04:54:53;98839.00;;;4.68;100.00
61786;BME280;47692;53.714;11.372;2023-01-15T04:57:19;98834.72;;;4.67;100.00
61786;BME280;47692;53.714;11.372;2023-01-15T04:59:44;98826.03;;;4.69;100.00
61786;BME280;47692;53.714;11.372;2023-01-15T05:02:09;98832.00;;;4.72;100.00
61786;BME280;47692;53.714;11.372;2023-01-15T05:04:34;98828.53;;;4.73;100.00
61786;BME280;47692;53.714;11.372;2023-01-15T05:07:01;98837.13;;;4.73;100.00
61786;BME280;47692;53.714;11.372;2023-01-15T05:09:26;98827.53;;;4.77;100.00
61786;BME280;47692;53.714;11.372;2023-01-15T05:11:52;98826.72;;;4.76;100.00
61786;BME280;47692;53.714;11.372;2023-01-15T05:14:17;98831.13;;;4.71;100.00
61786;BME280;47692;53.714;11.372;2023-01-15T05:16:42;98831.94;;;4.73;100.00
61786;BME280;47692;53.714;11.372;2023-01-15T05:19:08;98835.53;;;4.69;100.00
61786;BME280;47692;53.714;11.372;2023-01-15T05:21:34;98816.53;;;4.70;100.00
61786;BME280;47692;53.714;11.372;2023-01-15T05:24:01;98820.00;;;4.69;100.00
61786;BME280;47692;53.714;11.372;2023-01-15T05:26:26;98833.00;;;4.67;100.00
61786;BME280;47692;53.714;11.372;2023-01-15T05:28:52;98833.91;;;4.65;100.00
61786;BME280;47692;53.714;11.372;2023-01-15T05:31:18;98816.72;;;4.64;100.00
61786;BME280;47692;53.714;11.372;2023-01-15T05:33:45;98830.44;;;4.66;100.00
61786;BME280;47692;53.714;11.372;2023-01-15T05:36:12;98828.66;;;4.68;100.00
61786;BME280;47692;53.714;11.372;2023-01-15T05:38:37;98835.69;;;4.63;100.00
61786;BME280;47692;53.714;11.372;2023-01-15T05:41:03;98826.13;;;4.66;100.00
61786;BME280;47692;53.714;11.372;2023-01-15T05:43:49;98821.97;;;4.61;100.00
61786;BME280;47692;53.714;11.372;2023-01-15T05:46:14;98818.50;;;4.62;100.00
61786;BME280;47692;53.714;11.372;2023-01-15T05:48:39;98816.78;;;4.61;100.00
61786;BME280;47692;53.714;11.372;2023-01-15T05:51:04;98825.44;;;4.60;100.00
61786;BME280;47692;53.714;11.372;2023-01-15T05:53:30;98836.72;;;4.57;100.00
61786;BME280;47692;53.714;11.372;2023-01-15T05:55:59;98840.94;;;4.60;100.00
61786;BME280;47692;53.714;11.372;2023-01-15T05:58:25;98847.09;;;4.56;100.00
61786;BME280;47692;53.714;11.372;2023-01-15T06:00:50;98835.88;;;4.57;100.00
61786;BME280;47692;53.714;11.372;2023-01-15T06:03:15;98829.00;;;4.56;100.00
61786;BME280;47692;53.714;11.372;2023-01-15T06:05:40;98837.66;;;4.55;100.00
61786;BME280;47692;53.714;11.372;2023-01-15T06:08:05;98818.75;;;4.52;100.00
61786;BME280;47692;53.714;11.372;2023-01-15T06:10:31;98820.63;;;4.47;100.00
61786;BME280;47692;53.714;11.372;2023-01-15T06:12:56;98830.16;;;4.45;100.00
61786;BME280;47692;53.714;11.372;2023-01-15T06:15:21;98825.88;;;4.44;100.00
61786;BME280;47692;53.714;11.372;2023-01-15T06:17:48;98835.41;;;4.42;100.00
61786;BME280;47692;53.714;11.372;2023-01-15T06:20:13;98841.44;;;4.41;100.00
61786;BME280;47692;53.714;11.372;2023-01-15T06:22:38;98831.13;;;4.41;100.00
61786;BME280;47692;53.714;11.372;2023-01-15T06:25:04;98838.91;;;4.40;100.00
61786;BME280;47692;53.714;11.372;2023-01-15T06:27:29;98818.34;;;4.36;100.00
61786;BME280;47692;53.714;11.372;2023-01-15T06:29:54;98827.03;;;4.34;100.00
61786;BME280;47692;53.714;11.372;2023-01-15T06:32:22;98836.44;;;4.35;100.00
61786;BME280;47692;53.714;11.372;2023-01-15T06:34:48;98839.13;;;4.32;100.00
61786;BME280;47692;53.714;11.372;2023-01-15T06:37:13;98830.63;;;4.28;100.00
61786;BME280;47692;53.714;11.372;2023-01-15T06:39:39;98841.00;;;4.27;100.00
61786;BME280;47692;53.714;11.372;2023-01-15T06:42:04;98849.59;;;4.27;100.00
61786;BME280;47692;53.714;11.372;2023-01-15T06:44:48;98855.78;;;4.22;100.00
61786;BME280;47692;53.714;11.372;2023-01-15T06:47:36;98848.91;;;4.20;100.00
61786;BME280;47692;53.714;11.372;2023-01-15T06:50:02;98858.38;;;4.22;100.00
61786;BME280;47692;53.714;11.372;2023-01-15T06:52:27;98862.78;;;4.16;100.00
61786;BME280;47692;53.714;11.372;2023-01-15T06:54:53;98857.03;;;4.07;100.00
61786;BME280;47692;53.714;11.372;2023-01-15T06:57:19;98837.28;;;4.04;100.00
61786;BME280;47692;53.714;11.372;2023-01-15T06:59:44;98839.06;;;4.02;100.00
61786;BME280;47692;53.714;11.372;2023-01-15T07:02:10;98842.53;;;4.01;100.00
61786;BME280;47692;53.714;11.372;2023-01-15T07:04:35;98848.63;;;3.98;100.00
61786;BME280;47692;53.714;11.372;2023-01-15T07:07:01;98840.78;;;4.03;100.00
61786;BME280;47692;53.714;11.372;2023-01-15T07:09:26;98857.22;;;3.99;100.00
61786;BME280;47692;53.714;11.372;2023-01-15T07:11:51;98845.19;;;3.98;100.00
61786;BME280;47692;53.714;11.372;2023-01-15T07:14:21;98846.00;;;4.00;100.00
61786;BME280;47692;53.714;11.372;2023-01-15T07:16:46;98858.19;;;3.95;100.00
61786;BME280;47692;53.714;11.372;2023-01-15T07:19:12;98846.25;;;3.91;100.00
61786;BME280;47692;53.714;11.372;2023-01-15T07:21:37;98847.09;;;3.91;100.00
61786;BME280;47692;53.714;11.372;2023-01-15T07:24:03;98874.75;;;3.86;100.00
61786;BME280;47692;53.714;11.372;2023-01-15T07:26:28;98861.88;;;3.84;100.00
61786;BME280;47692;53.714;11.372;2023-01-15T07:28:53;98879.88;;;3.87;100.00
61786;BME280;47692;53.714;11.372;2023-01-15T07:31:18;98865.41;;;3.82;100.00
61786;BME280;47692;53.714;11.372;2023-01-15T07:33:44;98873.16;;;3.80;100.00
61786;BME280;47692;53.714;11.372;2023-01-15T07:36:09;98857.72;;;3.79;100.00
61786;BME280;47692;53.714;11.372;2023-01-15T07:38:34;98857.81;;;3.76;100.00
61786;BME280;47692;53.714;11.372;2023-01-15T07:40:59;98855.19;;;3.77;100.00
61786;BME280;47692;53.714;11.372;2023-01-15T07:43:43;98847.59;;;3.71;100.00
61786;BME280;47692;53.714;11.372;2023-01-15T07:46:27;98853.56;;;3.73;100.00
61786;BME280;47692;53.714;11.372;2023-01-15T07:49:11;98857.03;;;3.72;100.00
61786;BME280;47692;53.714;11.372;2023-01-15T07:51:55;98862.09;;;3.75;100.00
61786;BME280;47692;53.714;11.372;2023-01-15T07:54:20;98862.19;;;3.72;100.00
61786;BME280;47692;53.714;11.372;2023-01-15T07:56:45;98863.94;;;3.70;100.00
61786;BME280;47692;53.714;11.372;2023-01-15T07:59:11;98854.50;;;3.69;100.00
61786;BME280;47692;53.714;11.372;2023-01-15T08:01:36;98865.81;;;3.65;100.00
61786;BME280;47692;53.714;11.372;2023-01-15T08:04:01;98862.25;;;3.69;100.00
61786;BME280;47692;53.714;11.372;2023-01-15T08:06:27;98856.22;;;3.70;100.00
61786;BME280;47692;53.714;11.372;2023-01-15T08:08:52;98869.19;;;3.67;100.00
61786;BME280;47692;53.714;11.372;2023-01-15T08:11:17;98863.25;;;3.63;100.00
61786;BME280;47692;53.714;11.372;2023-01-15T08:14:01;98870.19;;;3.61;100.00
61786;BME280;47692;53.714;11.372;2023-01-15T08:16:45;98867.59;;;3.61;100.00
61786;BME280;47692;53.714;11.372;2023-01-15T08:19:10;98872.56;;;3.69;100.00
61786;BME280;47692;53.714;11.372;2023-01-15T08:21:35;98882.84;;;3.72;100.00
61786;BME280;47692;53.714;11.372;2023-01-15T08:24:00;98875.09;;;3.72;100.00
61786;BME280;47692;53.714;11.372;2023-01-15T08:26:26;98879.28;;;3.76;100.00
61786;BME280;47692;53.714;11.372;2023-01-15T08:28:51;98880.22;;;3.74;100.00
61786;BME280;47692;53.714;11.372;2023-01-15T08:31:16;98873.31;;;3.74;100.00
61786;BME280;47692;53.714;11.372;2023-01-15T08:33:41;98872.44;;;3.75;100.00
61786;BME280;47692;53.714;11.372;2023-01-15T08:36:07;98866.38;;;3.76;100.00
61786;BME280;47692;53.714;11.372;2023-01-15T08:38:32;98872.38;;;3.78;100.00
61786;BME280;47692;53.714;11.372;2023-01-15T08:40:58;98878.47;;;3.76;100.00
61786;BME280;47692;53.714;11.372;2023-01-15T08:43:23;98871.59;;;3.75;100.00
61786;BME280;47692;53.714;11.372;2023-01-15T08:45:49;98872.28;;;3.81;100.00
61786;BME280;47692;53.714;11.372;2023-01-15T08:48:14;98870.56;;;3.80;100.00
61786;BME280;47692;53.714;11.372;2023-01-15T08:50:39;98873.97;;;3.82;100.00
61786;BME280;47692;53.714;11.372;2023-01-15T08:53:04;98876.66;;;3.79;100.00
61786;BME280;47692;53.714;11.372;2023-01-15T08:55:30;98877.44;;;3.81;100.00
61786;BME280;47692;53.714;11.372;2023-01-15T08:57:56;98877.38;;;3.84;100.00
61786;BME280;47692;53.714;11.372;2023-01-15T09:00:21;98879.09;;;3.85;100.00
61786;BME280;47692;53.714;11.372;2023-01-15T09:02:48;98882.41;;;3.91;100.00
61786;BME280;47692;53.714;11.372;2023-01-15T09:05:13;98885.72;;;3.96;100.00
61786;BME280;47692;53.714;11.372;2023-01-15T09:07:38;98888.09;;;4.03;100.00
61786;BME280;47692;53.714;11.372;2023-01-15T09:10:04;98883.84;;;4.01;100.00
61786;BME280;47692;53.714;11.372;2023-01-15T09:12:29;98877.75;;;4.03;100.00
61786;BME280;47692;53.714;11.372;2023-01-15T09:14:55;98884.53;;;4.08;100.00
61786;BME280;47692;53.714;11.372;2023-01-15T09:17:20;98885.41;;;4.08;100.00
61786;BME280;47692;53.714;11.372;2023-01-15T09:19:45;98885.25;;;4.14;100.00
61786;BME280;47692;53.714;11.372;2023-01-15T09:22:11;98876.44;;;4.22;99.54
61786;BME280;47692;53.714;11.372;2023-01-15T09:24:36;98890.97;;;4.26;99.77
61786;BME280;47692;53.714;11.372;2023-01-15T09:27:01;98891.63;;;4.34;99.11
61786;BME280;47692;53.714;11.372;2023-01-15T09:29:26;98899.16;;;4.42;98.16
61786;BME280;47692;53.714;11.372;2023-01-15T09:31:51;98892.25;;;4.42;97.73
61786;BME280;47692;53.714;11.372;2023-01-15T09:34:17;98884.44;;;4.45;98.09
61786;BME280;47692;53.714;11.372;2023-01-15T09:36:42;98887.81;;;4.47;98.01
61786;BME280;47692;53.714;11.372;2023-01-15T09:39:08;98890.16;;;4.57;97.75
61786;BME280;47692;53.714;11.372;2023-01-15T09:41:37;98879.53;;;4.66;96.70
61786;BME280;47692;53.714;11.372;2023-01-15T09:44:31;98883.75;;;4.70;96.39
61786;BME280;47692;53.714;11.372;2023-01-15T09:47:08;98876.66;;;4.77;95.52
61786;BME280;47692;53.714;11.372;2023-01-15T09:52:16;98876.38;;;4.88;94.56
61786;BME280;47692;53.714;11.372;2023-01-15T09:55:04;98870.13;;;4.95;94.57
61786;BME280;47692;53.714;11.372;2023-01-15T09:57:28;98867.53;;;4.95;94.51
61786;BME280;47692;53.714;11.372;2023-01-15T09:59:55;98867.63;;;4.92;93.76
61786;BME280;47692;53.714;11.372;2023-01-15T10:10:49;98861.97;;;5.07;92.61
61786;BME280;47692;53.714;11.372;2023-01-15T10:13:36;98863.72;;;5.07;92.30
61786;BME280;47692;53.714;11.372;2023-01-15T10:15:57;98865.28;;;5.12;92.57
61786;BME280;47692;53.714;11.372;2023-01-15T10:18:23;98876.28;;;5.19;91.40
61786;BME280;47692;53.714;11.372;2023-01-15T10:23:25;98867.84;;;5.14;91.30
61786;BME280;47692;53.714;11.372;2023-01-15T10:26:01;98847.22;;;5.11;90.29
61786;BME280;47692;53.714;11.372;2023-01-15T10:28:31;98861.84;;;5.12;90.29
61786;BME280;47692;53.714;11.372;2023-01-15T10:31:07;98878.31;;;5.09;89.67
61786;BME280;47692;53.714;11.372;2023-01-15T10:33:51;98868.09;;;5.05;88.64
61786;BME280;47692;53.714;11.372;2023-01-15T10:36:21;98850.16;;;5.00;87.87
61786;BME280;47692;53.714;11.372;2023-01-15T10:44:17;98856.34;;;4.94;82.09
61786;BME280;47692;53.714;11.372;2023-01-15T10:46:47;98845.94;;;4.96;81.86
61786;BME280;47692;53.714;11.372;2023-01-15T10:49:15;98845.03;;;4.97;81.38
61786;BME280;47692;53.714;11.372;2023-01-15T10:52:41;98866.69;;;4.94;81.18
61786;BME280;47692;53.714;11.372;2023-01-15T10:54:42;98864.09;;;4.94;80.39
61786;BME280;47692;53.714;11.372;2023-01-15T11:02:22;98849.44;;;4.95;79.84
61786;BME280;47692;53.714;11.372;2023-01-15T11:04:48;98838.66;;;5.09;79.49
61786;BME280;47692;53.714;11.372;2023-01-15T11:07:14;98843.16;;;5.02;79.26
61786;BME280;47692;53.714;11.372;2023-01-15T11:09:40;98837.81;;;5.08;79.15
61786;BME280;47692;53.714;11.372;2023-01-15T11:14:34;98847.31;;;5.36;78.93
61786;BME280;47692;53.714;11.372;2023-01-15T11:17:19;98835.16;;;5.38;79.00
61786;BME280;47692;53.714;11.372;2023-01-15T11:20:09;98842.59;;;5.49;78.34
61786;BME280;47692;53.714;11.372;2023-01-15T11:22:37;98843.47;;;5.49;77.28
61786;BME280;47692;53.714;11.372;2023-01-15T11:25:02;98835.97;;;5.40;77.56
61786;BME280;47692;53.714;11.372;2023-01-15T11:27:31;98825.47;;;5.45;76.53
61786;BME280;47692;53.714;11.372;2023-01-15T11:29:58;98839.88;;;5.54;77.27
61786;BME280;47692;53.714;11.372;2023-01-15T11:32:31;98834.19;;;5.69;76.50
61786;BME280;47692;53.714;11.372;2023-01-15T11:34:58;98840.09;;;5.73;75.42
61786;BME280;47692;53.714;11.372;2023-01-15T11:37:23;98837.78;;;5.65;75.11
61786;BME280;47692;53.714;11.372;2023-01-15T11:39:55;98825.09;;;5.57;75.91
61786;BME280;47692;53.714;11.372;2023-01-15T11:42:21;98825.47;;;5.45;76.63
61786;BME280;47692;53.714;11.372;2023-01-15T11:45:12;98822.94;;;5.43;76.45
61786;BME280;47692;53.714;11.372;2023-01-15T11:47:56;98837.34;;;5.52;75.26
61786;BME280;47692;53.714;11.372;2023-01-15T11:50:55;98821.13;;;5.45;75.60
61786;BME280;47692;53.714;11.372;2023-01-15T11:53:27;98824.22;;;5.57;76.45
61786;BME280;47692;53.714;11.372;2023-01-15T11:55:57;98819.28;;;5.49;76.03
61786;BME280;47692;53.714;11.372;2023-01-15T11:58:27;98811.88;;;5.65;76.92
61786;BME280;47692;53.714;11.372;2023-01-15T12:00:53;98821.72;;;5.80;75.87
61786;BME280;47692;53.714;11.372;2023-01-15T12:03:28;98828.09;;;5.70;75.48
61786;BME280;47692;53.714;11.372;2023-01-15T12:05:56;98821.84;;;5.77;75.12
61786;BME280;47692;53.714;11.372;2023-01-15T12:10:57;98816.44;;;5.58;75.56
61786;BME280;47692;53.714;11.372;2023-01-15T12:13:50;98804.50;;;5.53;75.08
61786;BME280;47692;53.714;11.372;2023-01-15T12:19:20;98807.81;;;5.31;75.74
61786;BME280;47692;53.714;11.372;2023-01-15T12:29:25;98784.09;;;5.16;76.20
61786;BME280;47692;53.714;11.372;2023-01-15T12:32:00;98787.59;;;5.15;75.87
61786;BME280;47692;53.714;11.372;2023-01-15T12:34:40;98783.91;;;5.23;73.93
61786;BME280;47692;53.714;11.372;2023-01-15T12:37:11;98768.19;;;5.29;74.17
61786;BME280;47692;53.714;11.372;2023-01-15T12:39:44;98774.53;;;5.45;74.82
61786;BME280;47692;53.714;11.372;2023-01-15T12:42:13;98769.38;;;5.45;75.00
61786;BME280;47692;53.714;11.372;2023-01-15T12:44:59;98736.06;;;5.34;75.34
61786;BME280;47692;53.714;11.372;2023-01-15T12:47:48;98747.56;;;5.26;74.89
61786;BME280;47692;53.714;11.372;2023-01-15T12:55:47;98784.47;;;5.04;78.90
61786;BME280;47692;53.714;11.372;2023-01-15T12:58:19;98821.94;;;4.91;81.18
61786;BME280;47692;53.714;11.372;2023-01-15T13:00:47;98844.63;;;4.19;89.24
61786;BME280;47692;53.714;11.372;2023-01-15T13:05:48;98810.16;;;3.54;98.17
61786;BME280;47692;53.714;11.372;2023-01-15T13:08:26;98796.47;;;3.49;100.00
61786;BME280;47692;53.714;11.372;2023-01-15T13:10:53;98799.44;;;3.34;100.00
61786;BME280;47692;53.714;11.372;2023-01-15T13:18:33;98791.41;;;3.10;100.00
61786;BME280;47692;53.714;11.372;2023-01-15T13:21:02;98781.94;;;3.11;100.00
61786;BME280;47692;53.714;11.372;2023-01-15T13:23:33;98787.75;;;3.19;100.00
61786;BME280;47692;53.714;11.372;2023-01-15T13:26:22;98790.25;;;3.23;100.00
61786;BME280;47692;53.714;11.372;2023-01-15T13:29:28;98785.41;;;3.10;100.00
61786;BME280;47692;53.714;11.372;2023-01-15T13:34:23;98774.53;;;2.97;100.00
61786;BME280;47692;53.714;11.372;2023-01-15T13:36:50;98765.91;;;2.98;100.00
61786;BME280;47692;53.714;11.372;2023-01-15T13:39:20;98759.00;;;3.00;100.00
61786;BME280;47692;53.714;11.372;2023-01-15T13:41:47;98758.00;;;3.05;100.00
61786;BME280;47692;53.714;11.372;2023-01-15T13:44:33;98764.06;;;3.03;100.00
61786;BME280;47692;53.714;11.372;2023-01-15T13:47:05;98762.22;;;3.08;100.00
61786;BME280;47692;53.714;11.372;2023-01-15T13:49:33;98763.88;;;3.12;100.00
61786;BME280;47692;53.714;11.372;2023-01-15T13:52:00;98760.31;;;3.16;100.00
61786;BME280;47692;53.714;11.372;2023-01-15T13:54:28;98743.16;;;3.15;100.00
61786;BME280;47692;53.714;11.372;2023-01-15T13:57:05;98742.03;;;3.26;100.00
61786;BME280;47692;53.714;11.372;2023-01-15T13:59:38;98737.59;;;3.32;100.00
61786;BME280;47692;53.714;11.372;2023-01-15T14:02:24;98737.38;;;3.40;100.00
61786;BME280;47692;53.714;11.372;2023-01-15T14:04:50;98733.63;;;3.53;98.60
61786;BME280;47692;53.714;11.372;2023-01-15T14:07:19;98728.28;;;3.60;98.00
61786;BME280;47692;53.714;11.372;2023-01-15T14:09:47;98720.44;;;3.64;97.33
61786;BME280;47692;53.714;11.372;2023-01-15T14:12:19;98719.50;;;3.67;96.27
61786;BME280;47692;53.714;11.372;2023-01-15T14:20:02;98716.28;;;3.90;93.38
61786;BME280;47692;53.714;11.372;2023-01-15T14:27:43;98706.50;;;4.33;87.19